sensor_id;sensor_type;location;lat;lon;timestamp;P1;durP1;ratioP1;P2;durP2;ratioP2
75104;SDS011;64778;47.314;8.466;2023-02-15T00:01:08;141.90;;;18.70;;
75104;SDS011;64778;47.314;8.466;2023-02-15T00:03:37;88.50;;;19.08;;
75104;SDS011;64778;47.314;8.466;2023-02-15T00:06:03;87.32;;;18.67;;
75104;SDS011;64778;47.314;8.466;2023-02-15T00:08:31;173.30;;;21.83;;
75104;SDS011;64778;47.314;8.466;2023-02-15T00:11:03;194.38;;;22.02;;
75104;SDS011;64778;47.314;8.466;2023-02-15T00:13:39;104.38;;;21.05;;
75104;SDS011;64778;47.314;8.466;2023-02-15T00:16:11;112.18;;;17.10;;
75104;SDS011;64778;47.314;8.466;2023-02-15T00:21:05;74.65;;;15.77;;
75104;SDS011;64778;47.314;8.466;2023-02-15T00:23:33;86.43;;;14.98;;
75104;SDS011;64778;47.314;8.466;2023-02-15T00:26:06;117.10;;;16.13;;
75104;SDS011;64778;47.314;8.466;2023-02-15T00:28:36;44.72;;;14.55;;
75104;SDS011;64778;47.314;8.466;2023-02-15T00:31:05;82.57;;;19.45;;
75104;SDS011;64778;47.314;8.466;2023-02-15T00:33:35;108.63;;;20.33;;
75104;SDS011;64778;47.314;8.466;2023-02-15T00:36:04;60.53;;;19.85;;
75104;SDS011;64778;47.314;8.466;2023-02-15T00:38:32;52.63;;;19.10;;
75104;SDS011;64778;47.314;8.466;2023-02-15T00:41:01;51.92;;;18.77;;
75104;SDS011;64778;47.314;8.466;2023-02-15T00:43:30;66.70;;;17.52;;
75104;SDS011;64778;47.314;8.466;2023-02-15T00:45:57;51.03;;;16.58;;
75104;SDS011;64778;47.314;8.466;2023-02-15T00:48:23;72.72;;;16.52;;
75104;SDS011;64778;47.314;8.466;2023-02-15T00:50:50;53.33;;;15.60;;
75104;SDS011;64778;47.314;8.466;2023-02-15T00:53:18;54.07;;;15.50;;
75104;SDS011;64778;47.314;8.466;2023-02-15T00:55:46;41.90;;;15.57;;
75104;SDS011;64778;47.314;8.466;2023-02-15T00:58:14;70.88;;;16.33;;
75104;SDS011;64778;47.314;8.466;2023-02-15T01:00:44;92.93;;;17.02;;
75104;SDS011;64778;47.314;8.466;2023-02-15T01:03:12;107.90;;;17.23;;
75104;SDS011;64778;47.314;8.466;2023-02-15T01:05:38;90.22;;;17.13;;
75104;SDS011;64778;47.314;8.466;2023-02-15T01:08:07;49.30;;;16.15;;
75104;SDS011;64778;47.314;8.466;2023-02-15T01:10:35;52.13;;;16.15;;
75104;SDS011;64778;47.314;8.466;2023-02-15T01:13:01;43.57;;;15.97;;
75104;SDS011;64778;47.314;8.466;2023-02-15T01:15:33;27.75;;;15.70;;
75104;SDS011;64778;47.314;8.466;2023-02-15T01:18:00;32.57;;;15.97;;
75104;SDS011;64778;47.314;8.466;2023-02-15T01:20:26;46.20;;;15.33;;
75104;SDS011;64778;47.314;8.466;2023-02-15T01:22:57;27.80;;;14.18;;
75104;SDS011;64778;47.314;8.466;2023-02-15T01:25:25;44.50;;;13.35;;
75104;SDS011;64778;47.314;8.466;2023-02-15T01:27:53;21.25;;;13.10;;
75104;SDS011;64778;47.314;8.466;2023-02-15T01:30:21;39.85;;;13.18;;
75104;SDS011;64778;47.314;8.466;2023-02-15T01:32:47;91.18;;;13.25;;
75104;SDS011;64778;47.314;8.466;2023-02-15T01:35:12;38.35;;;13.63;;
75104;SDS011;64778;47.314;8.466;2023-02-15T01:37:38;85.78;;;17.02;;
75104;SDS011;64778;47.314;8.466;2023-02-15T01:40:07;45.73;;;17.27;;
75104;SDS011;64778;47.314;8.466;2023-02-15T01:42:36;291.02;;;23.42;;
75104;SDS011;64778;47.314;8.466;2023-02-15T01:45:05;73.00;;;17.23;;
75104;SDS011;64778;47.314;8.466;2023-02-15T01:47:44;204.73;;;20.88;;
75104;SDS011;64778;47.314;8.466;2023-02-15T01:52:46;228.07;;;20.48;;
75104;SDS011;64778;47.314;8.466;2023-02-15T01:55:21;169.52;;;18.80;;
75104;SDS011;64778;47.314;8.466;2023-02-15T01:57:50;101.88;;;17.38;;
75104;SDS011;64778;47.314;8.466;2023-02-15T02:00:16;119.32;;;16.73;;
75104;SDS011;64778;47.314;8.466;2023-02-15T02:02:45;58.85;;;16.05;;
75104;SDS011;64778;47.314;8.466;2023-02-15T02:05:16;104.80;;;15.57;;
75104;SDS011;64778;47.314;8.466;2023-02-15T02:07:44;97.32;;;16.90;;
75104;SDS011;64778;47.314;8.466;2023-02-15T02:10:17;35.17;;;15.15;;
75104;SDS011;64778;47.314;8.466;2023-02-15T02:12:47;36.47;;;13.70;;
75104;SDS011;64778;47.314;8.466;2023-02-15T02:15:24;26.95;;;13.40;;
75104;SDS011;64778;47.314;8.466;2023-02-15T02:23:31;65.68;;;14.23;;
75104;SDS011;64778;47.314;8.466;2023-02-15T02:46:32;351.45;;;21.17;;
75104;SDS011;64778;47.314;8.466;2023-02-15T02:49:06;68.03;;;14.00;;
75104;SDS011;64778;47.314;8.466;2023-02-15T02:51:35;118.75;;;15.23;;
75104;SDS011;64778;47.314;8.466;2023-02-15T02:54:05;124.30;;;15.10;;
75104;SDS011;64778;47.314;8.466;2023-02-15T02:56:36;129.10;;;14.90;;
75104;SDS011;64778;47.314;8.466;2023-02-15T02:59:21;37.88;;;10.02;;
75104;SDS011;64778;47.314;8.466;2023-02-15T03:04:32;15.25;;;9.48;;
75104;SDS011;64778;47.314;8.466;2023-02-15T03:07:05;16.25;;;9.40;;
75104;SDS011;64778;47.314;8.466;2023-02-15T03:09:36;14.55;;;8.77;;
75104;SDS011;64778;47.314;8.466;2023-02-15T03:12:11;13.90;;;8.35;;
75104;SDS011;64778;47.314;8.466;2023-02-15T03:14:48;13.75;;;8.93;;
75104;SDS011;64778;47.314;8.466;2023-02-15T03:17:21;15.93;;;9.80;;
75104;SDS011;64778;47.314;8.466;2023-02-15T03:19:51;15.57;;;9.70;;
75104;SDS011;64778;47.314;8.466;2023-02-15T03:22:25;15.43;;;9.02;;
75104;SDS011;64778;47.314;8.466;2023-02-15T03:27:44;15.45;;;9.35;;
75104;SDS011;64778;47.314;8.466;2023-02-15T03:30:12;15.02;;;9.13;;
75104;SDS011;64778;47.314;8.466;2023-02-15T03:32:40;15.43;;;9.25;;
75104;SDS011;64778;47.314;8.466;2023-02-15T03:35:11;16.02;;;9.50;;
75104;SDS011;64778;47.314;8.466;2023-02-15T04:17:08;25.60;;;9.77;;
75104;SDS011;64778;47.314;8.466;2023-02-15T04:19:34;26.48;;;10.38;;
75104;SDS011;64778;47.314;8.466;2023-02-15T04:22:19;32.13;;;10.98;;
75104;SDS011;64778;47.314;8.466;2023-02-15T04:25:03;22.98;;;10.18;;
75104;SDS011;64778;47.314;8.466;2023-02-15T04:27:36;19.45;;;10.43;;
75104;SDS011;64778;47.314;8.466;2023-02-15T04:30:03;44.08;;;10.68;;
75104;SDS011;64778;47.314;8.466;2023-02-15T04:32:30;20.42;;;10.43;;
75104;SDS011;64778;47.314;8.466;2023-02-15T04:34:56;18.13;;;10.50;;
75104;SDS011;64778;47.314;8.466;2023-02-15T04:39:50;17.38;;;9.43;;
75104;SDS011;64778;47.314;8.466;2023-02-15T04:42:16;18.50;;;10.48;;
75104;SDS011;64778;47.314;8.466;2023-02-15T04:44:46;15.65;;;9.30;;
75104;SDS011;64778;47.314;8.466;2023-02-15T04:47:14;17.98;;;9.90;;
75104;SDS011;64778;47.314;8.466;2023-02-15T04:49:42;19.17;;;10.27;;
75104;SDS011;64778;47.314;8.466;2023-02-15T04:52:10;16.05;;;9.13;;
75104;SDS011;64778;47.314;8.466;2023-02-15T04:54:36;17.45;;;9.88;;
75104;SDS011;64778;47.314;8.466;2023-02-15T04:57:03;15.93;;;9.32;;
75104;SDS011;64778;47.314;8.466;2023-02-15T05:01:54;15.52;;;9.15;;
75104;SDS011;64778;47.314;8.466;2023-02-15T05:04:22;17.45;;;10.50;;
75104;SDS011;64778;47.314;8.466;2023-02-15T05:06:48;16.23;;;9.40;;
75104;SDS011;64778;47.314;8.466;2023-02-15T05:09:14;16.27;;;8.85;;
75104;SDS011;64778;47.314;8.466;2023-02-15T05:11:41;15.75;;;9.25;;
75104;SDS011;64778;47.314;8.466;2023-02-15T05:14:07;16.92;;;9.38;;
75104;SDS011;64778;47.314;8.466;2023-02-15T05:19:00;13.85;;;8.60;;
75104;SDS011;64778;47.314;8.466;2023-02-15T05:21:30;14.70;;;8.65;;
75104;SDS011;64778;47.314;8.466;2023-02-15T08:38:20;18.70;;;10.77;;
75104;SDS011;64778;47.314;8.466;2023-02-15T08:40:47;20.80;;;12.27;;
75104;SDS011;64778;47.314;8.466;2023-02-15T08:43:15;19.85;;;11.10;;
75104;SDS011;64778;47.314;8.466;2023-02-15T08:45:41;18.13;;;11.68;;
75104;SDS011;64778;47.314;8.466;2023-02-15T08:48:08;23.67;;;13.88;;
75104;SDS011;64778;47.314;8.466;2023-02-15T08:57:58;20.23;;;11.77;;
75104;SDS011;64778;47.314;8.466;2023-02-15T09:00:26;21.02;;;10.68;;
75104;SDS011;64778;47.314;8.466;2023-02-15T09:02:53;22.08;;;12.38;;
75104;SDS011;64778;47.314;8.466;2023-02-15T09:05:18;22.42;;;12.90;;
75104;SDS011;64778;47.314;8.466;2023-02-15T09:07:44;20.88;;;11.70;;
75104;SDS011;64778;47.314;8.466;2023-02-15T09:10:12;18.88;;;11.23;;
75104;SDS011;64778;47.314;8.466;2023-02-15T09:12:37;18.42;;;11.00;;
75104;SDS011;64778;47.314;8.466;2023-02-15T09:15:08;21.20;;;11.18;;
75104;SDS011;64778;47.314;8.466;2023-02-15T09:17:33;19.42;;;11.05;;
75104;SDS011;64778;47.314;8.466;2023-02-15T09:19:59;19.10;;;11.75;;
75104;SDS011;64778;47.314;8.466;2023-02-15T09:22:25;20.30;;;11.43;;
75104;SDS011;64778;47.314;8.466;2023-02-15T09:24:53;23.38;;;11.50;;
75104;SDS011;64778;47.314;8.466;2023-02-15T09:27:23;22.13;;;12.20;;
75104;SDS011;64778;47.314;8.466;2023-02-15T09:29:53;18.77;;;11.20;;
75104;SDS011;64778;47.314;8.466;2023-02-15T09:32:21;24.73;;;13.02;;
75104;SDS011;64778;47.314;8.466;2023-02-15T09:34:47;21.33;;;12.15;;
75104;SDS011;64778;47.314;8.466;2023-02-15T09:37:13;20.30;;;11.55;;
75104;SDS011;64778;47.314;8.466;2023-02-15T09:39:39;19.52;;;11.40;;
75104;SDS011;64778;47.314;8.466;2023-02-15T09:50:35;23.05;;;11.75;;
75104;SDS011;64778;47.314;8.466;2023-02-15T09:58:35;30.00;;;15.85;;
75104;SDS011;64778;47.314;8.466;2023-02-15T10:27:49;23.67;;;13.82;;
75104;SDS011;64778;47.314;8.466;2023-02-15T10:30:17;21.98;;;13.65;;
75104;SDS011;64778;47.314;8.466;2023-02-15T10:33:02;21.50;;;12.13;;
75104;SDS011;64778;47.314;8.466;2023-02-15T10:57:11;18.30;;;11.00;;
75104;SDS011;64778;47.314;8.466;2023-02-15T11:05:15;15.13;;;9.80;;
75104;SDS011;64778;47.314;8.466;2023-02-15T11:08:03;21.00;;;11.73;;
75104;SDS011;64778;47.314;8.466;2023-02-15T11:10:38;17.13;;;11.23;;
75104;SDS011;64778;47.314;8.466;2023-02-15T11:13:17;18.00;;;10.10;;
75104;SDS011;64778;47.314;8.466;2023-02-15T11:23:49;18.73;;;10.88;;
75104;SDS011;64778;47.314;8.466;2023-02-15T11:29:18;16.83;;;12.65;;
75104;SDS011;64778;47.314;8.466;2023-02-15T11:34:25;19.13;;;13.27;;
75104;SDS011;64778;47.314;8.466;2023-02-15T11:36:55;18.88;;;12.43;;
75104;SDS011;64778;47.314;8.466;2023-02-15T11:39:28;16.90;;;12.57;;
75104;SDS011;64778;47.314;8.466;2023-02-15T11:41:57;16.80;;;12.02;;
75104;SDS011;64778;47.314;8.466;2023-02-15T11:47:29;27.10;;;12.00;;
75104;SDS011;64778;47.314;8.466;2023-02-15T11:52:21;16.02;;;9.82;;
75104;SDS011;64778;47.314;8.466;2023-02-15T11:54:47;15.48;;;11.13;;
75104;SDS011;64778;47.314;8.466;2023-02-15T11:59:48;14.52;;;11.00;;
75104;SDS011;64778;47.314;8.466;2023-02-15T12:02:21;17.67;;;11.48;;
75104;SDS011;64778;47.314;8.466;2023-02-15T12:04:53;15.33;;;10.97;;
75104;SDS011;64778;47.314;8.466;2023-02-15T12:07:32;12.82;;;9.68;;
75104;SDS011;64778;47.314;8.466;2023-02-15T12:12:46;12.30;;;9.20;;
75104;SDS011;64778;47.314;8.466;2023-02-15T12:15:14;15.05;;;9.07;;
75104;SDS011;64778;47.314;8.466;2023-02-15T12:17:54;14.55;;;9.85;;
75104;SDS011;64778;47.314;8.466;2023-02-15T12:20:27;13.25;;;9.32;;
75104;SDS011;64778;47.314;8.466;2023-02-15T12:25:41;15.25;;;9.90;;
75104;SDS011;64778;47.314;8.466;2023-02-15T12:28:26;16.73;;;9.73;;
75104;SDS011;64778;47.314;8.466;2023-02-15T12:30:57;14.50;;;9.60;;
75104;SDS011;64778;47.314;8.466;2023-02-15T12:36:12;14.38;;;9.88;;
75104;SDS011;64778;47.314;8.466;2023-02-15T12:41:30;16.52;;;8.90;;
75104;SDS011;64778;47.314;8.466;2023-02-15T12:51:56;14.35;;;9.23;;
75104;SDS011;64778;47.314;8.466;2023-02-15T12:56:54;13.57;;;9.50;;
75104;SDS011;64778;47.314;8.466;2023-02-15T12:59:19;13.18;;;9.68;;
75104;SDS011;64778;47.314;8.466;2023-02-15T13:01:48;12.90;;;9.02;;
75104;SDS011;64778;47.314;8.466;2023-02-15T13:04:23;13.32;;;9.88;;
75104;SDS011;64778;47.314;8.466;2023-02-15T13:06:50;13.75;;;9.70;;
75104;SDS011;64778;47.314;8.466;2023-02-15T13:09:19;14.63;;;10.13;;
75104;SDS011;64778;47.314;8.466;2023-02-15T13:11:50;16.17;;;9.38;;
75104;SDS011;64778;47.314;8.466;2023-02-15T13:21:39;14.20;;;9.05;;
75104;SDS011;64778;47.314;8.466;2023-02-15T13:24:57;11.52;;;8.77;;
75104;SDS011;64778;47.314;8.466;2023-02-15T13:27:10;13.63;;;10.38;;
75104;SDS011;64778;47.314;8.466;2023-02-15T13:29:54;14.18;;;10.13;;
75104;SDS011;64778;47.314;8.466;2023-02-15T13:34:59;15.52;;;9.52;;
75104;SDS011;64778;47.314;8.466;2023-02-15T13:42:49;13.35;;;9.77;;
75104;SDS011;64778;47.314;8.466;2023-02-15T13:59:50;17.08;;;11.60;;
75104;SDS011;64778;47.314;8.466;2023-02-15T14:03:36;18.75;;;10.88;;
75104;SDS011;64778;47.314;8.466;2023-02-15T14:24:45;16.52;;;11.90;;
75104;SDS011;64778;47.314;8.466;2023-02-15T14:30:32;14.75;;;11.07;;
75104;SDS011;64778;47.314;8.466;2023-02-15T14:33:11;17.50;;;10.75;;
75104;SDS011;64778;47.314;8.466;2023-02-15T14:35:41;16.35;;;11.30;;
75104;SDS011;64778;47.314;8.466;2023-02-15T14:48:42;15.07;;;11.10;;
75104;SDS011;64778;47.314;8.466;2023-02-15T14:51:12;14.57;;;10.40;;
75104;SDS011;64778;47.314;8.466;2023-02-15T14:56:47;12.80;;;10.60;;
75104;SDS011;64778;47.314;8.466;2023-02-15T15:07:27;12.95;;;10.15;;
75104;SDS011;64778;47.314;8.466;2023-02-15T15:12:51;12.57;;;9.90;;
75104;SDS011;64778;47.314;8.466;2023-02-15T15:18:00;13.73;;;9.77;;
75104;SDS011;64778;47.314;8.466;2023-02-15T15:38:56;11.60;;;7.22;;
75104;SDS011;64778;47.314;8.466;2023-02-15T16:04:42;9.38;;;7.38;;
75104;SDS011;64778;47.314;8.466;2023-02-15T16:22:20;13.40;;;9.23;;
75104;SDS011;64778;47.314;8.466;2023-02-15T17:32:51;16.52;;;8.85;;
75104;SDS011;64778;47.314;8.466;2023-02-15T17:35:20;18.83;;;10.97;;
75104;SDS011;64778;47.314;8.466;2023-02-15T17:37:50;20.27;;;10.95;;
75104;SDS011;64778;47.314;8.466;2023-02-15T17:40:30;17.00;;;10.60;;
75104;SDS011;64778;47.314;8.466;2023-02-15T17:42:58;17.42;;;10.82;;
75104;SDS011;64778;47.314;8.466;2023-02-15T17:45:25;16.47;;;10.73;;
75104;SDS011;64778;47.314;8.466;2023-02-15T17:47:56;17.40;;;10.50;;
75104;SDS011;64778;47.314;8.466;2023-02-15T17:50:24;17.40;;;11.40;;
75104;SDS011;64778;47.314;8.466;2023-02-15T17:52:54;16.48;;;10.57;;
75104;SDS011;64778;47.314;8.466;2023-02-15T17:55:24;19.92;;;10.80;;
75104;SDS011;64778;47.314;8.466;2023-02-15T18:00:45;16.00;;;10.48;;
75104;SDS011;64778;47.314;8.466;2023-02-15T18:03:50;17.85;;;9.85;;
75104;SDS011;64778;47.314;8.466;2023-02-15T18:06:36;17.15;;;11.23;;
75104;SDS011;64778;47.314;8.466;2023-02-15T18:09:23;18.48;;;11.48;;
75104;SDS011;64778;47.314;8.466;2023-02-15T18:14:40;18.83;;;10.80;;
75104;SDS011;64778;47.314;8.466;2023-02-15T18:17:05;21.00;;;11.70;;
75104;SDS011;64778;47.314;8.466;2023-02-15T18:19:38;19.05;;;11.20;;
75104;SDS011;64778;47.314;8.466;2023-02-15T18:22:14;18.75;;;11.40;;
75104;SDS011;64778;47.314;8.466;2023-02-15T18:24:43;16.67;;;10.55;;
75104;SDS011;64778;47.314;8.466;2023-02-15T18:27:10;18.38;;;11.90;;
75104;SDS011;64778;47.314;8.466;2023-02-15T18:29:36;20.85;;;13.98;;
75104;SDS011;64778;47.314;8.466;2023-02-15T18:32:02;40.60;;;26.02;;
75104;SDS011;64778;47.314;8.466;2023-02-15T18:34:36;35.15;;;21.83;;
75104;SDS011;64778;47.314;8.466;2023-02-15T18:37:03;35.70;;;22.63;;
75104;SDS011;64778;47.314;8.466;2023-02-15T18:39:38;34.83;;;21.50;;
75104;SDS011;64778;47.314;8.466;2023-02-15T18:42:24;27.58;;;18.08;;
75104;SDS011;64778;47.314;8.466;2023-02-15T18:44:53;21.08;;;13.43;;
75104;SDS011;64778;47.314;8.466;2023-02-15T18:47:20;19.75;;;12.40;;
75104;SDS011;64778;47.314;8.466;2023-02-15T18:49:46;19.55;;;12.13;;
75104;SDS011;64778;47.314;8.466;2023-02-15T18:52:18;18.33;;;11.20;;
75104;SDS011;64778;47.314;8.466;2023-02-15T18:54:58;17.70;;;10.30;;
75104;SDS011;64778;47.314;8.466;2023-02-15T18:57:27;21.13;;;11.45;;
75104;SDS011;64778;47.314;8.466;2023-02-15T18:59:54;19.35;;;11.32;;
75104;SDS011;64778;47.314;8.466;2023-02-15T19:02:22;17.08;;;10.20;;
75104;SDS011;64778;47.314;8.466;2023-02-15T19:04:48;15.93;;;9.75;;
75104;SDS011;64778;47.314;8.466;2023-02-15T19:07:20;16.33;;;10.00;;
75104;SDS011;64778;47.314;8.466;2023-02-15T19:09:49;17.90;;;10.05;;
75104;SDS011;64778;47.314;8.466;2023-02-15T19:12:21;28.42;;;14.80;;
75104;SDS011;64778;47.314;8.466;2023-02-15T19:14:46;16.83;;;9.75;;
75104;SDS011;64778;47.314;8.466;2023-02-15T19:17:13;16.10;;;9.80;;
75104;SDS011;64778;47.314;8.466;2023-02-15T19:19:41;15.27;;;9.57;;
75104;SDS011;64778;47.314;8.466;2023-02-15T19:22:10;19.50;;;12.88;;
75104;SDS011;64778;47.314;8.466;2023-02-15T19:24:41;21.85;;;12.93;;
75104;SDS011;64778;47.314;8.466;2023-02-15T19:30:02;15.88;;;9.18;;
75104;SDS011;64778;47.314;8.466;2023-02-15T19:32:42;17.67;;;9.52;;
75104;SDS011;64778;47.314;8.466;2023-02-15T19:35:12;15.93;;;9.50;;
75104;SDS011;64778;47.314;8.466;2023-02-15T19:37:45;18.45;;;9.45;;
75104;SDS011;64778;47.314;8.466;2023-02-15T19:40:26;14.02;;;8.68;;
75104;SDS011;64778;47.314;8.466;2023-02-15T19:42:57;14.75;;;9.10;;
75104;SDS011;64778;47.314;8.466;2023-02-15T19:45:24;16.80;;;8.83;;
75104;SDS011;64778;47.314;8.466;2023-02-15T19:47:56;15.75;;;8.57;;
75104;SDS011;64778;47.314;8.466;2023-02-15T19:50:24;13.45;;;9.07;;
75104;SDS011;64778;47.314;8.466;2023-02-15T19:52:53;16.10;;;9.30;;
75104;SDS011;64778;47.314;8.466;2023-02-15T19:55:26;14.45;;;9.23;;
75104;SDS011;64778;47.314;8.466;2023-02-15T19:58:01;16.10;;;9.77;;
75104;SDS011;64778;47.314;8.466;2023-02-15T20:00:30;15.50;;;9.23;;
75104;SDS011;64778;47.314;8.466;2023-02-15T20:02:58;14.88;;;9.23;;
75104;SDS011;64778;47.314;8.466;2023-02-15T20:05:27;14.95;;;8.93;;
75104;SDS011;64778;47.314;8.466;2023-02-15T20:07:54;15.10;;;9.38;;
75104;SDS011;64778;47.314;8.466;2023-02-15T20:10:21;15.63;;;9.20;;
75104;SDS011;64778;47.314;8.466;2023-02-15T20:12:56;16.25;;;9.02;;
75104;SDS011;64778;47.314;8.466;2023-02-15T20:15:23;13.52;;;8.50;;
75104;SDS011;64778;47.314;8.466;2023-02-15T20:17:51;14.68;;;8.88;;
75104;SDS011;64778;47.314;8.466;2023-02-15T20:20:18;13.55;;;8.23;;
75104;SDS011;64778;47.314;8.466;2023-02-15T20:22:47;16.13;;;8.87;;
75104;SDS011;64778;47.314;8.466;2023-02-15T20:25:17;14.25;;;8.40;;
75104;SDS011;64778;47.314;8.466;2023-02-15T20:27:49;14.20;;;8.50;;
75104;SDS011;64778;47.314;8.466;2023-02-15T20:30:22;14.77;;;8.40;;
75104;SDS011;64778;47.314;8.466;2023-02-15T20:32:49;22.02;;;13.35;;
75104;SDS011;64778;47.314;8.466;2023-02-15T20:35:17;17.17;;;10.70;;
75104;SDS011;64778;47.314;8.466;2023-02-15T20:37:47;19.90;;;11.55;;
75104;SDS011;64778;47.314;8.466;2023-02-15T20:40:20;17.87;;;11.00;;
75104;SDS011;64778;47.314;8.466;2023-02-15T20:42:48;17.63;;;10.60;;
75104;SDS011;64778;47.314;8.466;2023-02-15T20:45:15;17.27;;;10.10;;
75104;SDS011;64778;47.314;8.466;2023-02-15T20:47:44;14.23;;;9.70;;
75104;SDS011;64778;47.314;8.466;2023-02-15T20:50:24;17.77;;;10.20;;
75104;SDS011;64778;47.314;8.466;2023-02-15T20:52:52;16.65;;;10.50;;
75104;SDS011;64778;47.314;8.466;2023-02-15T20:55:30;16.33;;;9.50;;
75104;SDS011;64778;47.314;8.466;2023-02-15T20:57:59;16.23;;;9.90;;
75104;SDS011;64778;47.314;8.466;2023-02-15T21:00:25;15.00;;;9.63;;
75104;SDS011;64778;47.314;8.466;2023-02-15T21:02:54;15.55;;;9.73;;
75104;SDS011;64778;47.314;8.466;2023-02-15T21:05:26;13.63;;;8.60;;
75104;SDS011;64778;47.314;8.466;2023-02-15T21:07:54;14.48;;;8.93;;
75104;SDS011;64778;47.314;8.466;2023-02-15T21:10:21;13.82;;;8.90;;
75104;SDS011;64778;47.314;8.466;2023-02-15T21:12:53;15.93;;;8.73;;
75104;SDS011;64778;47.314;8.466;2023-02-15T21:15:31;14.63;;;8.60;;
75104;SDS011;64778;47.314;8.466;2023-02-15T21:18:00;13.63;;;8.45;;
75104;SDS011;64778;47.314;8.466;2023-02-15T21:20:30;13.00;;;8.35;;
75104;SDS011;64778;47.314;8.466;2023-02-15T21:22:58;14.20;;;8.73;;
75104;SDS011;64778;47.314;8.466;2023-02-15T21:25:33;15.63;;;9.07;;
75104;SDS011;64778;47.314;8.466;2023-02-15T21:28:00;14.10;;;8.63;;
75104;SDS011;64778;47.314;8.466;2023-02-15T21:30:32;13.33;;;8.20;;
75104;SDS011;64778;47.314;8.466;2023-02-15T21:32:57;13.30;;;8.53;;
75104;SDS011;64778;47.314;8.466;2023-02-15T21:35:26;13.90;;;8.48;;
75104;SDS011;64778;47.314;8.466;2023-02-15T21:37:54;14.02;;;8.82;;
75104;SDS011;64778;47.314;8.466;2023-02-15T21:40:22;16.15;;;8.48;;
75104;SDS011;64778;47.314;8.466;2023-02-15T21:42:55;13.13;;;8.13;;
75104;SDS011;64778;47.314;8.466;2023-02-15T21:45:40;14.80;;;8.00;;
75104;SDS011;64778;47.314;8.466;2023-02-15T21:48:25;14.07;;;8.50;;
75104;SDS011;64778;47.314;8.466;2023-02-15T21:50:51;13.73;;;8.32;;
75104;SDS011;64778;47.314;8.466;2023-02-15T21:53:39;13.63;;;8.50;;
75104;SDS011;64778;47.314;8.466;2023-02-15T21:56:17;13.75;;;8.50;;
75104;SDS011;64778;47.314;8.466;2023-02-15T21:58:44;14.20;;;8.73;;
75104;SDS011;64778;47.314;8.466;2023-02-15T22:01:19;13.50;;;8.43;;
75104;SDS011;64778;47.314;8.466;2023-02-15T22:03:47;13.52;;;8.38;;
75104;SDS011;64778;47.314;8.466;2023-02-15T22:06:13;14.57;;;8.48;;
75104;SDS011;64778;47.314;8.466;2023-02-15T22:08:41;14.27;;;8.20;;
75104;SDS011;64778;47.314;8.466;2023-02-15T22:11:12;13.18;;;8.50;;
75104;SDS011;64778;47.314;8.466;2023-02-15T22:13:40;13.00;;;8.07;;
75104;SDS011;64778;47.314;8.466;2023-02-15T22:16:09;14.07;;;8.63;;
75104;SDS011;64778;47.314;8.466;2023-02-15T22:18:42;14.00;;;8.53;;
75104;SDS011;64778;47.314;8.466;2023-02-15T22:21:09;13.35;;;8.40;;
75104;SDS011;64778;47.314;8.466;2023-02-15T22:23:35;13.82;;;8.40;;
75104;SDS011;64778;47.314;8.466;2023-02-15T22:26:02;14.07;;;8.05;;
75104;SDS011;64778;47.314;8.466;2023-02-15T22:28:48;14.03;;;8.30;;
75104;SDS011;64778;47.314;8.466;2023-02-15T22:31:20;12.52;;;8.23;;
75104;SDS011;64778;47.314;8.466;2023-02-15T22:33:49;13.47;;;8.37;;
75104;SDS011;64778;47.314;8.466;2023-02-15T22:36:18;12.73;;;8.10;;
75104;SDS011;64778;47.314;8.466;2023-02-15T22:38:50;13.88;;;8.20;;
75104;SDS011;64778;47.314;8.466;2023-02-15T22:41:18;15.65;;;8.73;;
75104;SDS011;64778;47.314;8.466;2023-02-15T22:43:45;12.25;;;7.75;;
75104;SDS011;64778;47.314;8.466;2023-02-15T22:46:18;12.77;;;7.80;;
75104;SDS011;64778;47.314;8.466;2023-02-15T22:48:46;13.07;;;7.85;;
75104;SDS011;64778;47.314;8.466;2023-02-15T22:51:17;12.13;;;7.60;;
75104;SDS011;64778;47.314;8.466;2023-02-15T22:53:45;12.73;;;7.45;;
75104;SDS011;64778;47.314;8.466;2023-02-15T22:59:03;12.35;;;7.63;;
75104;SDS011;64778;47.314;8.466;2023-02-15T23:01:35;12.15;;;7.60;;
75104;SDS011;64778;47.314;8.466;2023-02-15T23:04:02;12.85;;;7.65;;
75104;SDS011;64778;47.314;8.466;2023-02-15T23:06:28;12.47;;;7.23;;
75104;SDS011;64778;47.314;8.466;2023-02-15T23:08:53;12.47;;;7.50;;
75104;SDS011;64778;47.314;8.466;2023-02-15T23:11:21;13.45;;;7.63;;
75104;SDS011;64778;47.314;8.466;2023-02-15T23:13:50;12.38;;;7.68;;
75104;SDS011;64778;47.314;8.466;2023-02-15T23:16:18;10.52;;;7.10;;
75104;SDS011;64778;47.314;8.466;2023-02-15T23:18:44;11.35;;;6.88;;
75104;SDS011;64778;47.314;8.466;2023-02-15T23:23:57;10.90;;;6.53;;
75104;SDS011;64778;47.314;8.466;2023-02-15T23:26:39;12.13;;;6.78;;
75104;SDS011;64778;47.314;8.466;2023-02-15T23:29:08;11.80;;;7.00;;
75104;SDS011;64778;47.314;8.466;2023-02-15T23:31:38;10.75;;;6.63;;
75104;SDS011;64778;47.314;8.466;2023-02-15T23:34:13;11.53;;;6.53;;
75104;SDS011;64778;47.314;8.466;2023-02-15T23:36:48;10.27;;;6.75;;
75104;SDS011;64778;47.314;8.466;2023-02-15T23:42:11;11.30;;;6.30;;
75104;SDS011;64778;47.314;8.466;2023-02-15T23:44:37;10.15;;;6.20;;
75104;SDS011;64778;47.314;8.466;2023-02-15T23:47:05;11.52;;;6.45;;
75104;SDS011;64778;47.314;8.466;2023-02-15T23:49:43;9.43;;;5.60;;
75104;SDS011;64778;47.314;8.466;2023-02-15T23:52:09;9.98;;;5.65;;
75104;SDS011;64778;47.314;8.466;2023-02-15T23:54:35;8.77;;;5.65;;
75104;SDS011;64778;47.314;8.466;2023-02-15T23:57:04;9.43;;;5.40;;
75104;SDS011;64778;47.314;8.466;2023-02-15T23:59:34;8.20;;;5.07;;
